Terminal Aerodrome Forecast
Issued by NWS Charleston, WV

Current Version | Previous Version | Graphics & Text | Print | Product List | Glossary On
Versions: 1 2 3 4 5 6 7 8 9 10 11 12 13 14 15 16 17 18 19 20 21 22 23 24 25 26 27 28 29 30 31
530
FTUS41 KRLX 220236 AAB
TAFBKW
TAF AMD
KBKW 220236Z 2203/2224 29007KT P6SM -SHRA OVC007
     FM220400 31009KT P6SM OVC004
     FM221200 33009KT P6SM OVC008
     FM221300 33010G20KT P6SM BKN020
     FM221500 32011G20KT P6SM BKN035
     FM221800 32011G20KT P6SM SHRA BKN045=

USA.gov is the U.S. government's official web portal to all federal, state and local government web resources and services.